createdAt,value
2022-08-11T00:01:21.418Z,99.90
2022-08-11T00:03:55.458Z,99.90
2022-08-11T00:06:37.926Z,99.90
2022-08-11T00:09:11.324Z,99.90
2022-08-11T00:11:48.862Z,99.90
2022-08-11T00:14:19.677Z,99.90
2022-08-11T00:16:55.219Z,99.90
2022-08-11T00:20:14.326Z,99.90
2022-08-11T00:22:20.639Z,99.90
2022-08-11T00:24:53.321Z,99.90
2022-08-11T00:27:35.504Z,99.90
2022-08-11T00:30:04.687Z,99.90
2022-08-11T00:32:32.643Z,99.90
2022-08-11T00:35:55.938Z,99.90
2022-08-11T00:37:51.812Z,99.90
2022-08-11T00:40:45.132Z,99.90
2022-08-11T00:43:50.553Z,99.90
2022-08-11T00:46:46.649Z,99.90
2022-08-11T00:49:50.567Z,99.90
2022-08-11T00:52:27.446Z,99.90
2022-08-11T00:55:05.421Z,99.90
2022-08-11T00:57:54.730Z,99.90
2022-08-11T01:00:24.125Z,99.90
2022-08-11T01:03:06.313Z,99.90
2022-08-11T01:05:58.309Z,99.90
2022-08-11T01:08:56.360Z,99.90
2022-08-11T01:11:55.974Z,99.90
2022-08-11T01:15:04.972Z,99.90
2022-08-11T01:18:00.922Z,99.90
2022-08-11T01:21:08.018Z,99.90
2022-08-11T01:23:59.076Z,99.90
2022-08-11T01:26:57.274Z,99.90
2022-08-11T01:29:42.922Z,99.90
2022-08-11T01:32:50.377Z,99.90
2022-08-11T01:35:44.718Z,99.90
2022-08-11T01:38:43.477Z,99.90
2022-08-11T01:41:49.385Z,99.90
2022-08-11T01:44:38.250Z,99.90
2022-08-11T01:47:54.370Z,99.90
2022-08-11T01:50:42.866Z,99.90
2022-08-11T01:53:37.149Z,99.90
2022-08-11T01:56:28.435Z,99.90
2022-08-11T01:59:23.343Z,99.90
2022-08-11T02:02:46.317Z,99.90
2022-08-11T02:05:42.713Z,99.90
2022-08-11T02:08:50.361Z,99.90
2022-08-11T02:11:37.480Z,99.90
2022-08-11T02:14:24.708Z,99.90
2022-08-11T02:17:15.021Z,99.90
2022-08-11T02:20:24.037Z,99.90
2022-08-11T02:24:04.075Z,99.90
2022-08-11T02:26:41.452Z,99.90
2022-08-11T02:29:26.100Z,99.90
2022-08-11T02:32:43.184Z,99.90
2022-08-11T02:35:43.253Z,99.90
2022-08-11T02:38:19.273Z,99.90
2022-08-11T02:40:54.129Z,99.90
2022-08-11T02:44:00.061Z,99.90
2022-08-11T02:46:32.669Z,99.90
2022-08-11T02:49:31.114Z,99.90
2022-08-11T02:52:14.538Z,99.90
2022-08-11T02:55:10.754Z,99.90
2022-08-11T02:58:31.990Z,99.90
2022-08-11T03:01:22.616Z,99.90
2022-08-11T03:04:08.408Z,99.90
2022-08-11T03:07:05.565Z,99.90
2022-08-11T03:10:22.565Z,99.90
2022-08-11T03:13:30.367Z,99.90
2022-08-11T03:16:16.214Z,99.90
2022-08-11T03:18:57.575Z,99.90
2022-08-11T03:22:03.617Z,99.90
2022-08-11T03:24:55.468Z,99.90
2022-08-11T03:28:03.675Z,99.90
2022-08-11T03:30:46.984Z,99.90
2022-08-11T03:33:48.446Z,99.90
2022-08-11T03:37:16.084Z,99.90
2022-08-11T03:39:56.204Z,99.90
2022-08-11T03:43:10.343Z,99.90
2022-08-11T03:46:04.352Z,99.90
2022-08-11T03:48:57.508Z,99.90
2022-08-11T03:51:51.776Z,99.90
2022-08-11T03:54:47.965Z,99.90
2022-08-11T03:57:45.860Z,99.90
2022-08-11T04:00:34.286Z,99.90
2022-08-11T04:03:31.051Z,99.90
2022-08-11T04:06:50.119Z,99.90
2022-08-11T04:09:57.259Z,99.90
2022-08-11T04:12:42.121Z,99.90
2022-08-11T04:15:49.978Z,99.90
2022-08-11T04:18:47.959Z,99.90
2022-08-11T04:21:27.073Z,99.90
2022-08-11T04:24:13.230Z,99.90
2022-08-11T04:27:15.209Z,99.90
2022-08-11T04:30:13.419Z,99.90
2022-08-11T04:33:35.365Z,99.90
2022-08-11T04:36:15.122Z,99.90
2022-08-11T04:39:23.250Z,99.90
2022-08-11T04:42:46.410Z,99.90
2022-08-11T04:45:34.647Z,99.90
2022-08-11T04:48:57.405Z,99.90
2022-08-11T04:51:49.399Z,99.90
2022-08-11T04:55:06.106Z,99.90
2022-08-11T04:58:20.643Z,99.90
2022-08-11T05:01:15.730Z,99.90
2022-08-11T05:04:28.948Z,99.90
2022-08-11T05:07:34.710Z,99.90
2022-08-11T05:10:47.815Z,99.90
2022-08-11T05:13:56.183Z,99.90
2022-08-11T05:16:48.362Z,99.90
2022-08-11T05:19:41.137Z,99.90
2022-08-11T05:22:30.348Z,99.90
2022-08-11T05:26:43.220Z,99.90
2022-08-11T05:29:19.341Z,99.90
2022-08-11T05:32:14.501Z,99.90
2022-08-11T05:34:54.944Z,99.90
2022-08-11T05:37:37.677Z,99.90
2022-08-11T05:40:28.233Z,99.90
2022-08-11T05:43:22.413Z,99.90
2022-08-11T05:46:22.403Z,99.90
2022-08-11T05:49:09.652Z,99.90
2022-08-11T05:52:05.019Z,99.90
2022-08-11T05:55:05.992Z,99.90
2022-08-11T05:57:48.622Z,99.90
2022-08-11T06:00:20.718Z,99.90
2022-08-11T06:02:55.615Z,99.90
2022-08-11T06:05:25.129Z,99.90
2022-08-11T06:07:57.307Z,99.90
2022-08-11T06:10:37.032Z,99.90
2022-08-11T06:13:06.553Z,99.90
2022-08-11T06:15:43.901Z,99.90
2022-08-11T06:18:13.192Z,99.90
2022-08-11T06:20:49.442Z,99.90
2022-08-11T06:23:23.896Z,99.90
2022-08-11T06:25:53.543Z,99.90
2022-08-11T06:28:33.112Z,99.90
2022-08-11T06:31:02.745Z,99.90
2022-08-11T06:33:48.204Z,99.90
2022-08-11T06:36:21.306Z,99.90
2022-08-11T06:39:15.924Z,99.90
2022-08-11T06:41:49.475Z,99.90
2022-08-11T06:44:32.641Z,99.90
2022-08-11T06:47:11.237Z,99.90
2022-08-11T06:50:03.851Z,99.90
2022-08-11T06:52:36.695Z,99.90
2022-08-11T06:55:56.091Z,99.90
2022-08-11T06:58:49.971Z,99.90
2022-08-11T07:01:28.418Z,99.90
2022-08-11T07:04:09.180Z,99.90
2022-08-11T07:07:09.469Z,99.90
2022-08-11T07:10:48.858Z,99.90
2022-08-11T07:13:44.305Z,99.90
2022-08-11T07:16:25.825Z,99.20
2022-08-11T07:19:18.561Z,99.90
2022-08-11T07:22:06.313Z,99.90
2022-08-11T07:25:02.374Z,93.40
2022-08-11T07:28:01.406Z,82.20
2022-08-11T07:30:30.159Z,78.60
2022-08-11T07:33:01.088Z,78.60
2022-08-11T07:35:35.833Z,73.50
2022-08-11T07:38:07.920Z,74.50
2022-08-11T07:40:36.474Z,70.50
2022-08-11T07:43:07.186Z,71.40
2022-08-11T07:45:53.725Z,71.00
2022-08-11T07:48:40.231Z,75.00
2022-08-11T07:51:26.496Z,72.00
2022-08-11T07:54:03.106Z,70.40
2022-08-11T07:56:54.304Z,66.00
2022-08-11T07:59:59.961Z,68.40
2022-08-11T08:02:52.518Z,65.40
2022-08-11T08:05:38.792Z,66.20
2022-08-11T08:08:26.703Z,66.60
2022-08-11T08:11:14.940Z,62.80
2022-08-11T08:14:02.074Z,67.10
2022-08-11T08:16:49.828Z,67.50
2022-08-11T08:19:20.891Z,65.80
2022-08-11T08:21:49.757Z,65.00
2022-08-11T08:24:20.278Z,64.10
2022-08-11T08:27:02.038Z,60.10
2022-08-11T08:29:52.636Z,59.20
2022-08-11T08:32:21.995Z,56.70
2022-08-11T08:34:54.429Z,55.70
2022-08-11T08:37:47.213Z,55.60
2022-08-11T08:40:17.725Z,55.20
2022-08-11T08:42:57.242Z,54.40
2022-08-11T08:45:27.515Z,56.80
2022-08-11T08:48:03.733Z,54.20
2022-08-11T08:50:55.849Z,61.50
2022-08-11T08:53:33.086Z,58.80
2022-08-11T08:56:02.279Z,60.10
2022-08-11T08:58:31.339Z,55.00
2022-08-11T09:01:00.979Z,57.70
2022-08-11T09:04:04.923Z,58.70
2022-08-11T09:06:17.509Z,58.60
2022-08-11T09:08:46.313Z,60.50
2022-08-11T09:11:35.196Z,55.50
2022-08-11T09:14:06.459Z,52.80
2022-08-11T09:16:39.563Z,54.70
2022-08-11T09:19:08.565Z,50.00
2022-08-11T09:21:48.337Z,53.20
2022-08-11T09:24:38.242Z,50.50
2022-08-11T09:27:10.719Z,50.70
2022-08-11T09:29:38.811Z,55.70
2022-08-11T09:32:07.438Z,52.20
2022-08-11T09:34:37.512Z,55.10
2022-08-11T09:37:28.453Z,54.70
2022-08-11T09:40:29.616Z,51.90
2022-08-11T09:43:23.597Z,52.30
2022-08-11T09:45:54.181Z,50.90
2022-08-11T09:48:23.970Z,47.00
2022-08-11T09:50:54.353Z,44.10
2022-08-11T09:53:37.264Z,44.80
2022-08-11T09:56:39.507Z,46.40
2022-08-11T09:59:07.841Z,49.00
2022-08-11T10:01:49.377Z,50.90
2022-08-11T10:04:20.905Z,46.60
2022-08-11T10:07:05.646Z,45.40
2022-08-11T10:09:38.873Z,41.60
2022-08-11T10:12:11.378Z,45.80
2022-08-11T10:15:02.557Z,46.00
2022-08-11T10:17:34.391Z,50.20
2022-08-11T10:20:05.939Z,46.50
2022-08-11T10:22:53.535Z,42.60
2022-08-11T10:25:40.494Z,42.40
2022-08-11T10:28:28.223Z,42.20
2022-08-11T10:31:16.834Z,44.60
2022-08-11T10:34:01.461Z,43.50
2022-08-11T10:36:31.474Z,45.30
2022-08-11T10:39:00.539Z,44.20
2022-08-11T10:42:08.474Z,46.50
2022-08-11T10:44:55.084Z,43.90
2022-08-11T10:47:35.622Z,43.60
2022-08-11T10:50:32.570Z,44.40
2022-08-11T10:53:19.833Z,46.50
2022-08-11T10:56:06.801Z,47.00
2022-08-11T10:58:52.169Z,48.40
2022-08-11T11:01:28.635Z,43.00
2022-08-11T11:04:02.245Z,42.40
2022-08-11T11:07:04.415Z,50.00
2022-08-11T11:09:42.110Z,53.40
2022-08-11T11:12:35.004Z,55.20
2022-08-11T11:15:23.829Z,51.80
2022-08-11T11:18:09.731Z,56.40
2022-08-11T11:21:00.413Z,53.50
2022-08-11T11:23:33.578Z,51.30
2022-08-11T11:26:32.850Z,52.80
2022-08-11T11:29:12.135Z,49.10
2022-08-11T11:32:18.150Z,43.30
2022-08-11T11:35:16.219Z,55.20
2022-08-11T11:37:56.084Z,50.60
2022-08-11T11:40:37.409Z,44.70
2022-08-11T11:43:05.951Z,39.30
2022-08-11T11:45:33.551Z,41.40
2022-08-11T11:48:02.402Z,40.00
2022-08-11T11:50:32.774Z,46.40
2022-08-11T11:53:03.829Z,46.70
2022-08-11T11:55:31.821Z,45.40
2022-08-11T11:58:20.476Z,44.20
2022-08-11T12:01:09.649Z,46.40
2022-08-11T12:03:38.222Z,43.10
2022-08-11T12:06:07.213Z,44.60
2022-08-11T12:08:35.733Z,44.10
2022-08-11T12:11:25.283Z,40.90
2022-08-11T12:13:54.739Z,40.10
2022-08-11T12:16:35.461Z,43.70
2022-08-11T12:19:15.930Z,41.10
2022-08-11T12:22:02.851Z,41.10
2022-08-11T12:24:50.182Z,41.50
2022-08-11T12:27:25.211Z,44.40
2022-08-11T12:30:00.808Z,40.50
2022-08-11T12:32:30.926Z,41.70
2022-08-11T12:34:58.537Z,39.10
2022-08-11T12:37:49.838Z,42.20
2022-08-11T12:41:11.954Z,39.40
2022-08-11T12:43:56.705Z,40.00
2022-08-11T12:46:33.490Z,42.00
2022-08-11T12:49:27.538Z,41.10
2022-08-11T12:52:06.815Z,40.90
2022-08-11T12:55:00.221Z,40.20
2022-08-11T12:57:50.827Z,37.40
2022-08-11T13:00:38.188Z,45.00
2022-08-11T13:03:27.197Z,38.80
2022-08-11T13:05:57.468Z,43.30
2022-08-11T13:08:25.957Z,37.10
2022-08-11T13:11:13.031Z,37.30
2022-08-11T13:13:54.906Z,37.50
2022-08-11T13:16:31.955Z,35.40
2022-08-11T13:19:01.359Z,38.30
2022-08-11T13:21:29.685Z,38.30
2022-08-11T13:23:59.923Z,35.00
2022-08-11T13:26:43.302Z,37.50
2022-08-11T13:29:25.622Z,37.50
2022-08-11T13:32:00.295Z,39.40
2022-08-11T13:34:29.134Z,36.00
2022-08-11T13:37:00.581Z,36.70
2022-08-11T13:39:30.806Z,35.80
2022-08-11T13:41:59.651Z,34.00
2022-08-11T13:44:31.514Z,35.40
2022-08-11T13:47:04.898Z,34.90
2022-08-11T13:49:36.139Z,36.50
2022-08-11T13:52:13.160Z,36.40
2022-08-11T13:54:42.716Z,38.40
2022-08-11T13:57:13.592Z,36.10
2022-08-11T14:00:13.276Z,35.40
2022-08-11T14:02:56.001Z,35.60
2022-08-11T14:05:27.193Z,35.80
2022-08-11T14:08:01.614Z,34.80
2022-08-11T14:10:31.444Z,41.40
2022-08-11T14:13:27.214Z,35.40
2022-08-11T14:15:57.476Z,32.60
2022-08-11T14:18:29.067Z,32.90
2022-08-11T14:21:17.643Z,33.50
2022-08-11T14:23:50.940Z,32.90
2022-08-11T14:26:38.886Z,34.30
2022-08-11T14:29:15.286Z,31.70
2022-08-11T14:32:02.720Z,32.00
2022-08-11T14:34:32.177Z,33.30
2022-08-11T14:37:29.432Z,32.90
2022-08-11T14:40:04.028Z,31.80
2022-08-11T14:42:50.380Z,31.00
2022-08-11T14:45:54.364Z,31.40
2022-08-11T14:48:26.474Z,34.00
2022-08-11T14:50:54.004Z,32.70
2022-08-11T14:53:23.663Z,33.20
2022-08-11T14:56:10.961Z,33.10
2022-08-11T14:58:40.224Z,31.60
2022-08-11T15:01:27.869Z,32.10
2022-08-11T15:04:33.987Z,31.70
2022-08-11T15:06:43.455Z,31.70
2022-08-11T15:09:10.742Z,31.80
2022-08-11T15:11:56.626Z,32.40
2022-08-11T15:14:43.501Z,34.60
2022-08-11T15:17:13.291Z,32.10
2022-08-11T15:20:02.266Z,34.10
2022-08-11T15:22:48.948Z,31.30
2022-08-11T15:25:16.342Z,31.80
2022-08-11T15:28:05.350Z,31.80
2022-08-11T15:30:51.438Z,31.20
2022-08-11T15:33:39.159Z,32.00
2022-08-11T15:36:27.776Z,33.40
2022-08-11T15:39:01.159Z,30.30
2022-08-11T15:42:00.371Z,33.60
2022-08-11T15:45:03.302Z,33.60
2022-08-11T15:47:58.435Z,34.70
2022-08-11T15:50:36.763Z,29.80
2022-08-11T15:53:12.242Z,32.10
2022-08-11T15:55:40.778Z,33.20
2022-08-11T15:58:28.316Z,30.80
2022-08-11T16:01:15.710Z,36.20
2022-08-11T16:04:12.836Z,36.10
2022-08-11T16:06:58.204Z,35.40
2022-08-11T16:09:57.035Z,34.20
2022-08-11T16:12:31.067Z,36.80
2022-08-11T16:15:22.783Z,33.60
2022-08-11T16:17:54.428Z,34.00
2022-08-11T16:20:24.971Z,35.50
2022-08-11T16:23:01.944Z,36.10
2022-08-11T16:27:01.642Z,35.20
2022-08-11T16:28:22.577Z,35.50
2022-08-11T16:30:51.373Z,35.40
2022-08-11T16:33:48.428Z,36.70
2022-08-11T16:36:28.603Z,35.70
2022-08-11T16:38:57.269Z,36.30
2022-08-11T16:41:46.662Z,38.70
2022-08-11T16:44:37.546Z,39.20
2022-08-11T16:47:14.300Z,39.30
2022-08-11T16:49:52.736Z,39.30
2022-08-11T16:52:23.075Z,40.40
2022-08-11T16:54:52.580Z,39.50
2022-08-11T16:57:45.761Z,40.10
2022-08-11T17:00:16.534Z,40.60
2022-08-11T17:03:11.103Z,38.30
2022-08-11T17:06:03.796Z,37.80
2022-08-11T17:09:06.904Z,40.30
2022-08-11T17:12:00.778Z,42.50
2022-08-11T17:14:49.988Z,44.30
2022-08-11T17:17:28.984Z,45.90
2022-08-11T17:20:41.017Z,47.50
2022-08-11T17:23:13.285Z,48.50
2022-08-11T17:25:59.886Z,49.70
2022-08-11T17:28:31.019Z,51.60
2022-08-11T17:31:22.188Z,53.90
2022-08-11T17:34:10.673Z,54.80
2022-08-11T17:36:44.501Z,56.10
2022-08-11T17:39:13.822Z,56.70
2022-08-11T17:42:01.153Z,58.60
2022-08-11T17:44:48.606Z,60.40
2022-08-11T17:47:36.945Z,62.00
2022-08-11T17:50:09.185Z,63.20
2022-08-11T17:53:05.595Z,64.80
2022-08-11T17:55:54.669Z,66.20
2022-08-11T17:58:42.322Z,66.60
2022-08-11T18:01:11.354Z,67.40
2022-08-11T18:03:41.781Z,68.40
2022-08-11T18:06:33.922Z,69.50
2022-08-11T18:09:29.688Z,71.00
2022-08-11T18:12:17.972Z,71.80
2022-08-11T18:15:07.068Z,72.80
2022-08-11T18:17:54.952Z,74.50
2022-08-11T18:20:42.324Z,74.90
2022-08-11T18:23:41.943Z,77.00
2022-08-11T18:26:42.479Z,78.30
2022-08-11T18:29:30.440Z,78.90
2022-08-11T18:32:46.184Z,80.10
2022-08-11T18:35:35.801Z,81.10
2022-08-11T18:38:22.852Z,83.40
2022-08-11T18:41:09.730Z,85.30
2022-08-11T18:44:01.408Z,87.20
2022-08-11T18:46:54.144Z,87.90
2022-08-11T18:50:01.724Z,88.50
2022-08-11T18:52:50.988Z,89.20
2022-08-11T18:55:38.743Z,90.80
2022-08-11T18:58:29.287Z,91.80
2022-08-11T19:01:18.655Z,92.10
2022-08-11T19:04:10.658Z,92.90
2022-08-11T19:06:58.915Z,94.60
2022-08-11T19:09:47.251Z,95.60
2022-08-11T19:12:34.616Z,95.90
2022-08-11T19:15:21.710Z,96.00
2022-08-11T19:18:08.561Z,96.50
2022-08-11T19:20:55.155Z,96.90
2022-08-11T19:23:52.489Z,98.50
2022-08-11T19:26:39.196Z,99.80
2022-08-11T19:30:04.781Z,99.90
2022-08-11T19:32:34.631Z,99.90
2022-08-11T19:35:21.312Z,99.90
2022-08-11T19:38:08.034Z,99.90
2022-08-11T19:40:56.587Z,99.90
2022-08-11T19:43:45.241Z,99.90
2022-08-11T19:46:31.740Z,99.90
2022-08-11T19:49:19.162Z,99.90
2022-08-11T19:52:05.795Z,99.90
2022-08-11T19:54:53.844Z,99.90
2022-08-11T19:57:42.045Z,99.90
2022-08-11T20:00:39.734Z,99.90
2022-08-11T20:03:28.979Z,99.90
2022-08-11T20:06:21.020Z,99.90
2022-08-11T20:09:08.936Z,99.90
2022-08-11T20:11:59.744Z,99.90
2022-08-11T20:14:49.846Z,99.90
2022-08-11T20:17:36.715Z,99.90
2022-08-11T20:20:26.288Z,99.90
2022-08-11T20:23:16.587Z,99.90
2022-08-11T20:26:14.400Z,99.90
2022-08-11T20:29:10.761Z,99.90
2022-08-11T20:31:57.417Z,99.90
2022-08-11T20:34:44.270Z,99.90
2022-08-11T20:37:30.938Z,99.90
2022-08-11T20:40:23.882Z,99.90
2022-08-11T20:43:15.907Z,99.90
2022-08-11T20:46:16.676Z,99.90
2022-08-11T20:49:03.490Z,99.90
2022-08-11T20:51:52.972Z,99.90
2022-08-11T20:54:43.771Z,99.90
2022-08-11T20:57:50.454Z,99.90
2022-08-11T21:00:39.210Z,99.90
2022-08-11T21:03:35.647Z,99.90
2022-08-11T21:06:31.192Z,99.90
2022-08-11T21:09:20.437Z,99.90
2022-08-11T21:12:08.114Z,99.90
2022-08-11T21:15:00.096Z,99.90
2022-08-11T21:18:00.402Z,99.90
2022-08-11T21:20:55.483Z,99.90
2022-08-11T21:23:43.559Z,99.90
2022-08-11T21:26:34.343Z,99.90
2022-08-11T21:29:21.242Z,99.90
2022-08-11T21:32:08.090Z,99.90
2022-08-11T21:34:55.122Z,99.90
2022-08-11T21:37:42.384Z,99.90
2022-08-11T21:40:30.245Z,99.90
2022-08-11T21:43:18.048Z,99.90
2022-08-11T21:46:06.025Z,99.90
2022-08-11T21:48:53.202Z,99.90
2022-08-11T21:51:39.126Z,99.90
2022-08-11T21:54:30.835Z,99.90
2022-08-11T21:57:18.149Z,99.90
2022-08-11T22:00:18.146Z,99.90
2022-08-11T22:03:07.404Z,99.90
2022-08-11T22:05:55.770Z,99.90
2022-08-11T22:08:41.384Z,99.90
2022-08-11T22:11:32.080Z,99.90
2022-08-11T22:14:20.198Z,99.90
2022-08-11T22:17:06.269Z,99.90
2022-08-11T22:19:54.908Z,99.90
2022-08-11T22:22:52.170Z,99.90
2022-08-11T22:25:54.255Z,99.90
2022-08-11T22:28:41.337Z,99.90
2022-08-11T22:31:29.080Z,99.90
2022-08-11T22:34:14.720Z,99.90
2022-08-11T22:37:02.486Z,99.90
2022-08-11T22:40:01.838Z,99.90
2022-08-11T22:42:52.032Z,99.90
2022-08-11T22:45:39.044Z,99.90
2022-08-11T22:48:26.211Z,99.90
2022-08-11T22:51:13.613Z,99.90
2022-08-11T22:54:01.946Z,99.90
2022-08-11T22:56:49.958Z,99.90
2022-08-11T22:59:37.358Z,99.90
2022-08-11T23:02:26.183Z,99.90
2022-08-11T23:05:12.673Z,99.90
2022-08-11T23:07:59.883Z,99.90
2022-08-11T23:10:46.160Z,99.90
2022-08-11T23:13:32.296Z,99.90
2022-08-11T23:16:19.087Z,99.90
2022-08-11T23:19:05.812Z,99.90
2022-08-11T23:21:53.401Z,99.90
2022-08-11T23:24:40.627Z,99.90
2022-08-11T23:27:28.878Z,99.90
2022-08-11T23:30:18.986Z,99.90
2022-08-11T23:33:05.861Z,99.90
2022-08-11T23:35:56.457Z,99.90
2022-08-11T23:38:45.311Z,99.90
2022-08-11T23:41:33.783Z,99.90
2022-08-11T23:44:24.416Z,99.90
2022-08-11T23:47:13.875Z,99.90
2022-08-11T23:50:00.355Z,99.90
2022-08-11T23:52:48.366Z,99.90
2022-08-11T23:55:39.108Z,99.90
2022-08-11T23:58:26.059Z,99.90
